Hovedside
METAR-TAF:

METAR-TAF

Lufthavner :

João Paulo II lufthavn

Ponta Delgada, Azorene, Portugal

breddegrad: 37-44N, lengdegrad: 025-42W, høyde over havet: 71 m

Gjeldene værobservasjon

Denne rapporten ble laget for 31 minutter siden, klokken 03:30 UTC
Flau vind
Temperatur 20°C
Luftfuktighet 88%
Trykk 1021 hPa
Sikt 10 km eller mer
Få skyer i en høyde av 2000 ft

METAR: LPPD 200330Z 00000KT 9999 FEW020 20/18 Q1021

Tid: 04:01 (04:01 UTC)

Varsel

Denne rapporten ble laget for 5 timer og 1 minutter siden, klokken 23:00 UTC
Varsel gyldig fra 20. klokken 00 UTC til 20. klokken 24 UTC
Vind 8 kt fra Sørvest
Sikt 10 km eller mer
Spredte skyer i en høyde av 2000 ft
Midlertidig
fra 20. klokken 00 UTC til 20. klokken 08 UTC
Vind 5 kt fra skiftende retning

TAF: LPPD 192300Z 2000/2024 23008KT 9999 SCT020 TEMPO 2000/2008 VRB05KT

Værobservasjoner og værvarsel for over 4000 flyplasser (METAR- og TAF-rapporter).

Tilgjengelige stasjoner er representert av de røde og gule prikkene på kartet.

Hold musepekeren over prikken for å se navnet på stasjonen.

Klikk så for å se værobservasjoner og -varsler.

For å forandre kartet kan du klikke på den grønne knappen med svart kryss for å zoome inn, på den grønne knappen med strek for å zoome ut, eller på de grønne pilene for å se tilstøtende kart.


METAR-TAF: